Time;durP1;ratioP1;P1;durP2;ratioP2;P2;SDS_P1;SDS_P2;PMS_P1;PMS_P2;Temp;Humidity;BMP_temperature;BMP_pressure;BME280_temperature;BME280_humidity;BME280_pressure;Samples;Min_cycle;Max_cycle;Signal;HPM_P1;HPM_P2
2022/05/24 00:00:28;;;;;;;9.33;2.20;;;17.40;99.90;;;;;;5053802;28;20473;-73
2022/05/24 00:02:54;;;;;;;1.90;1.40;;;17.50;99.90;;;;;;5072072;28;20193;-73
2022/05/24 00:05:21;;;;;;;5.27;1.63;;;17.50;99.90;;;;;;5071990;28;20427;-73
2022/05/24 00:07:47;;;;;;;2.30;2.00;;;17.50;99.90;;;;;;5072118;28;20414;-73
2022/05/24 00:10:17;;;;;;;4.20;1.50;;;17.40;99.90;;;;;;5053857;28;21011;-73
2022/05/24 00:12:43;;;;;;;3.47;1.80;;;17.40;99.90;;;;;;5053403;28;20215;-73
2022/05/24 00:15:24;;;;;;;1.80;1.20;;;17.50;99.90;;;;;;5071739;28;20507;-73
2022/05/24 00:18:00;;;;;;;2.40;1.70;;;17.50;99.90;;;;;;5053560;28;20417;-72
2022/05/24 00:20:33;;;;;;;2.40;1.77;;;17.50;99.90;;;;;;5071693;28;20470;-72
2022/05/24 00:22:59;;;;;;;3.43;1.57;;;17.50;99.90;;;;;;5071896;28;20428;-72
2022/05/24 00:25:25;;;;;;;5.27;2.20;;;17.50;99.90;;;;;;5072067;28;20842;-72
2022/05/24 00:27:51;;;;;;;6.13;1.53;;;17.50;99.90;;;;;;5053903;28;20189;-72
2022/05/24 00:30:17;;;;;;;6.63;2.13;;;17.50;99.90;;;;;;5072242;28;20424;-73
2022/05/24 00:32:44;;;;;;;5.23;1.77;;;17.30;99.90;;;;;;5072296;28;20446;-73
2022/05/24 00:35:11;;;;;;;4.63;1.87;;;17.20;99.90;;;;;;5071764;28;20448;-73
2022/05/24 00:37:38;;;;;;;6.83;1.90;;;17.20;99.90;;;;;;5053626;28;20456;-72
2022/05/24 00:40:07;;;;;;;4.37;1.70;;;17.20;99.90;;;;;;5053486;28;20464;-72
2022/05/24 00:42:37;;;;;;;4.10;2.10;;;17.20;99.90;;;;;;5071165;28;20438;-72
2022/05/24 00:45:21;;;;;;;3.47;1.90;;;17.20;99.90;;;;;;5071641;28;20424;-73
2022/05/24 00:47:53;;;;;;;4.70;1.77;;;17.20;99.90;;;;;;5052999;28;20501;-72
2022/05/24 00:50:27;;;;;;;8.77;2.13;;;17.30;99.90;;;;;;5036657;28;20648;-72
2022/05/24 00:53:01;;;;;;;2.43;1.40;;;17.30;99.90;;;;;;5070968;28;20544;-72
2022/05/24 00:55:30;;;;;;;6.70;1.70;;;17.30;99.90;;;;;;5052964;28;20442;-73
2022/05/24 00:58:36;;;;;;;3.87;1.50;;;17.40;99.90;;;;;;5052849;28;20940;-72
2022/05/24 01:01:10;;;;;;;3.97;2.00;;;17.40;99.90;;;;;;5052806;28;20543;-73
2022/05/24 01:03:36;;;;;;;3.67;2.13;;;17.40;99.90;;;;;;5052218;28;20877;-73
2022/05/24 01:06:02;;;;;;;4.63;1.43;;;17.40;99.90;;;;;;5036122;28;20511;-72
2022/05/24 01:08:28;;;;;;;2.67;1.00;;;17.50;99.90;;;;;;5070802;28;20209;-72
2022/05/24 01:10:54;;;;;;;2.00;1.07;;;17.50;99.90;;;;;;5019790;28;20186;-72
2022/05/24 01:13:27;;;;;;;4.23;1.30;;;17.50;99.90;;;;;;5070983;28;20198;-72
2022/05/24 01:15:53;;;;;;;5.13;1.07;;;17.50;99.90;;;;;;5052610;28;20446;-72
2022/05/24 01:18:21;;;;;;;0.90;0.70;;;17.40;99.90;;;;;;5070741;28;20441;-78
2022/05/24 01:20:54;;;;;;;1.83;0.80;;;17.40;99.90;;;;;;5052502;28;20470;-74
2022/05/24 01:23:45;;;;;;;2.70;0.90;;;17.30;99.90;;;;;;5070701;28;20441;-75
2022/05/24 01:26:32;;;;;;;1.90;1.10;;;17.30;99.90;;;;;;5054536;28;20426;-74
2022/05/24 01:29:00;;;;;;;1.53;1.07;;;17.30;99.90;;;;;;5071939;28;20492;-73
2022/05/24 01:36:09;;;;;;;1.10;0.70;;;17.30;99.90;;;;;;5053584;28;20436;-73
2022/05/24 01:37:00;;;;;;;0.80;0.60;;;17.20;99.90;;;;;;5065390;28;20439;-73
2022/05/24 01:39:26;;;;;;;1.13;0.70;;;17.10;99.90;;;;;;5072907;28;20472;-73
2022/05/24 01:41:51;;;;;;;1.00;0.80;;;17.10;99.90;;;;;;5079992;28;20413;-73
2022/05/24 01:44:24;;;;;;;2.37;0.73;;;17.10;99.90;;;;;;5079407;28;20776;-74
2022/05/24 01:46:50;;;;;;;1.70;0.60;;;17.20;99.90;;;;;;5070912;28;20666;-74
2022/05/24 01:49:22;;;;;;;2.37;0.70;;;17.10;99.90;;;;;;5070746;28;20424;-74
2022/05/24 01:52:14;;;;;;;1.53;0.70;;;17.10;99.90;;;;;;5070462;28;20637;-73
2022/05/24 01:54:45;;;;;;;1.03;0.50;;;17.00;99.90;;;;;;5035021;28;20437;-73
2022/05/24 01:57:15;;;;;;;0.80;0.60;;;17.00;99.90;;;;;;5070230;28;20428;-73
2022/05/24 01:59:42;;;;;;;0.83;0.60;;;17.00;99.90;;;;;;5070163;28;20528;-75
2022/05/24 02:02:08;;;;;;;1.00;0.50;;;17.00;99.90;;;;;;5051740;28;20447;-72
2022/05/24 02:04:34;;;;;;;0.97;0.60;;;16.90;99.90;;;;;;5051776;28;20431;-74
2022/05/24 02:07:11;;;;;;;1.10;0.60;;;16.90;99.90;;;;;;5069829;28;20223;-73
2022/05/24 02:09:41;;;;;;;2.23;0.60;;;16.80;99.90;;;;;;5069823;28;20558;-73
2022/05/24 02:12:23;;;;;;;0.70;0.60;;;16.80;99.90;;;;;;5051426;28;20472;-74
2022/05/24 02:15:00;;;;;;;0.90;0.63;;;16.70;99.90;;;;;;5069543;28;20477;-73
2022/05/24 02:17:47;;;;;;;0.80;0.60;;;16.60;99.90;;;;;;5069319;28;20930;-73
2022/05/24 02:20:19;;;;;;;1.57;0.70;;;16.60;99.90;;;;;;5051270;28;20551;-72
2022/05/24 02:22:47;;;;;;;2.77;0.83;;;16.60;99.90;;;;;;5068993;28;20443;-72
2022/05/24 02:25:23;;;;;;;1.60;0.70;;;16.50;99.90;;;;;;5069310;28;20497;-73
2022/05/24 02:27:49;;;;;;;1.77;0.60;;;16.50;99.90;;;;;;5050980;28;20442;-73
2022/05/24 02:30:18;;;;;;;2.60;0.90;;;16.40;99.90;;;;;;5069180;28;20423;-73
2022/05/24 02:32:44;;;;;;;0.90;0.70;;;16.40;99.90;;;;;;5069123;28;20492;-73
2022/05/24 02:35:10;;;;;;;1.27;0.90;;;16.40;99.90;;;;;;5069287;28;20855;-74
2022/05/24 02:37:36;;;;;;;1.67;0.80;;;16.30;99.90;;;;;;5069206;28;20432;-72
2022/05/24 02:42:47;;;;;;;1.27;0.70;;;16.30;99.90;;;;;;5069145;28;21070;-72
2022/05/24 02:45:13;;;;;;;1.00;0.70;;;16.30;99.90;;;;;;5051133;28;20462;-72
2022/05/24 02:47:39;;;;;;;1.30;0.80;;;16.20;99.90;;;;;;5069583;28;20192;-72
2022/05/24 02:50:05;;;;;;;3.67;0.93;;;16.30;99.90;;;;;;5034692;28;20223;-73
2022/05/24 02:52:30;;;;;;;2.20;1.00;;;16.20;99.90;;;;;;5070494;28;20209;-73
2022/05/24 02:54:56;;;;;;;1.97;1.00;;;16.20;99.90;;;;;;5051908;28;20788;-73
2022/05/24 02:57:23;;;;;;;2.70;0.70;;;16.20;99.90;;;;;;5051823;28;20646;-74
2022/05/24 02:59:49;;;;;;;1.60;1.20;;;16.10;99.90;;;;;;5069630;28;20545;-75
2022/05/24 03:02:14;;;;;;;2.80;1.07;;;16.00;99.90;;;;;;5051443;28;20533;-74
2022/05/24 03:04:40;;;;;;;1.10;0.90;;;15.90;99.90;;;;;;5068884;28;20417;-73
2022/05/24 03:09:49;;;;;;;2.80;1.63;;;15.60;99.90;;;;;;5069226;28;20198;-74
2022/05/24 03:14:59;;;;;;;6.50;1.17;;;15.50;99.90;;;;;;5068966;28;20302;-73
2022/05/24 03:17:25;;;;;;;2.73;1.27;;;15.60;99.90;;;;;;5050427;28;20548;-73
2022/05/24 03:19:51;;;;;;;2.10;1.07;;;15.60;99.90;;;;;;5068909;28;20203;-73
2022/05/24 03:22:17;;;;;;;2.70;1.20;;;15.60;99.90;;;;;;5068512;28;20435;-73
2022/05/24 03:24:43;;;;;;;1.07;0.90;;;15.50;99.90;;;;;;5069799;28;20268;-73
2022/05/24 03:27:11;;;;;;;2.50;0.90;;;15.50;99.90;;;;;;5056995;28;20567;-73
2022/05/24 03:29:42;;;;;;;2.13;0.70;;;15.50;99.90;;;;;;5075095;28;20195;-73
2022/05/24 03:32:09;;;;;;;2.50;1.00;;;15.40;99.90;;;;;;5075044;28;20430;-73
2022/05/24 03:34:36;;;;;;;2.03;1.67;;;15.40;99.90;;;;;;5075330;28;20949;-73
2022/05/24 03:37:02;;;;;;;6.40;1.70;;;15.40;99.90;;;;;;5074933;28;20422;-74
2022/05/24 03:39:27;;;;;;;1.83;1.37;;;15.50;99.90;;;;;;5056737;28;20473;-74
2022/05/24 03:41:53;;;;;;;3.07;1.40;;;15.60;99.90;;;;;;5056841;28;20426;-75
2022/05/24 03:44:19;;;;;;;1.50;1.40;;;15.70;99.90;;;;;;5057097;28;20198;-77
2022/05/24 03:46:46;;;;;;;2.47;1.70;;;15.40;99.90;;;;;;5040185;28;20274;-77
2022/05/24 03:49:13;;;;;;;2.20;1.20;;;15.40;99.90;;;;;;5056659;28;20411;-74
2022/05/24 03:51:38;;;;;;;2.20;1.37;;;15.60;99.90;;;;;;5056689;28;20409;-75
2022/05/24 03:54:06;;;;;;;6.63;2.10;;;15.70;99.90;;;;;;5074775;28;20443;-74
2022/05/24 03:56:33;;;;;;;1.63;1.53;;;15.70;99.90;;;;;;5074802;28;20266;-74
2022/05/24 03:58:58;;;;;;;2.20;1.50;;;15.80;99.90;;;;;;5056504;28;20421;-74
2022/05/24 04:01:24;;;;;;;4.30;1.80;;;15.80;99.90;;;;;;5074701;28;20417;-75
2022/05/24 04:03:50;;;;;;;5.43;1.40;;;15.90;99.90;;;;;;5056752;28;20682;-76
2022/05/24 04:06:15;;;;;;;1.83;1.30;;;15.90;99.90;;;;;;5055395;28;20191;-77
2022/05/24 04:08:41;;;;;;;5.67;1.40;;;15.80;99.90;;;;;;5073145;28;20176;-78
2022/05/24 04:11:09;;;;;;;1.80;1.27;;;15.80;99.90;;;;;;5054966;28;20191;-76
2022/05/24 04:13:37;;;;;;;5.00;1.20;;;15.80;99.90;;;;;;5054754;28;20208;-77
2022/05/24 04:16:04;;;;;;;2.60;1.47;;;15.90;99.90;;;;;;5073317;28;20417;-77
2022/05/24 04:18:30;;;;;;;1.20;1.00;;;15.90;99.90;;;;;;5073267;28;20422;-76
2022/05/24 04:20:56;;;;;;;1.77;1.47;;;15.90;99.90;;;;;;5054993;28;20473;-77
2022/05/24 04:23:24;;;;;;;1.43;1.33;;;15.80;99.90;;;;;;5038321;28;20480;-77
2022/05/24 04:25:49;;;;;;;1.60;1.20;;;15.70;99.90;;;;;;5055179;28;20430;-79
2022/05/24 04:28:18;;;;;;;2.57;1.57;;;15.70;99.90;;;;;;5072989;28;20424;-77
2022/05/24 04:30:48;;;;;;;2.23;1.60;;;15.70;99.90;;;;;;5073474;28;20180;-77
2022/05/24 04:33:15;;;;;;;5.23;1.10;;;15.80;99.90;;;;;;5073743;28;20445;-78
2022/05/24 04:35:43;;;;;;;2.70;1.10;;;15.90;99.90;;;;;;5073239;28;20510;-78
2022/05/24 04:38:08;;;;;;;1.93;0.90;;;15.90;99.90;;;;;;5068884;28;20424;-77
2022/05/24 04:43:18;;;;;;;1.93;1.00;;;15.90;99.90;;;;;;5070244;28;21022;-78
2022/05/24 04:45:44;;;;;;;2.50;1.10;;;16.00;99.90;;;;;;5069793;28;20516;-77
2022/05/24 04:48:10;;;;;;;3.77;1.50;;;15.90;99.90;;;;;;5052236;28;20180;-78
2022/05/24 04:50:37;;;;;;;2.73;1.10;;;15.90;99.90;;;;;;5052226;28;20237;-77
2022/05/24 04:53:04;;;;;;;2.60;1.30;;;15.90;99.90;;;;;;5070428;28;20204;-77
2022/05/24 04:55:29;;;;;;;9.03;1.50;;;16.00;99.90;;;;;;5051941;28;20432;-77
2022/05/24 04:57:56;;;;;;;0.80;0.80;;;16.00;99.90;;;;;;5070208;28;20418;-78
2022/05/24 05:00:23;;;;;;;2.83;1.10;;;16.00;99.90;;;;;;5069711;28;20274;-78
2022/05/24 05:02:49;;;;;;;1.10;1.00;;;16.00;99.90;;;;;;5069837;28;21034;-76
2022/05/24 05:05:15;;;;;;;6.47;1.10;;;15.90;99.90;;;;;;5069850;28;21106;-77
2022/05/24 05:07:41;;;;;;;2.27;1.20;;;15.80;99.90;;;;;;5051600;28;20425;-77
2022/05/24 05:10:08;;;;;;;2.00;1.03;;;15.80;99.90;;;;;;5069506;28;20410;-79
2022/05/24 05:12:35;;;;;;;2.33;1.17;;;15.80;99.90;;;;;;5070066;28;20438;-79
2022/05/24 05:15:00;;;;;;;2.53;1.20;;;15.80;99.90;;;;;;5069619;28;20447;-78
2022/05/24 05:17:26;;;;;;;1.30;1.20;;;15.80;99.90;;;;;;5050964;28;21044;-77
2022/05/24 05:19:52;;;;;;;3.70;1.47;;;15.80;99.90;;;;;;5034153;28;20227;-78
2022/05/24 05:22:18;;;;;;;3.67;1.27;;;15.70;99.90;;;;;;5069255;28;20198;-78
2022/05/24 05:24:45;;;;;;;5.40;1.60;;;15.80;99.90;;;;;;5034922;28;20194;-77
2022/05/24 05:27:10;;;;;;;5.73;1.30;;;15.70;99.90;;;;;;5051029;28;20860;-77
2022/05/24 05:32:26;;;;;;;2.93;1.30;;;15.80;99.90;;;;;;5069304;28;20264;-78
2022/05/24 05:34:53;;;;;;;5.23;1.53;;;15.80;99.90;;;;;;5050706;28;20431;-77
2022/05/24 05:37:19;;;;;;;2.90;1.33;;;15.90;99.90;;;;;;5050954;28;20426;-79
2022/05/24 05:39:45;;;;;;;2.10;1.23;;;16.00;99.90;;;;;;5068671;28;20465;-77
2022/05/24 05:42:11;;;;;;;1.23;1.13;;;16.10;99.90;;;;;;5068847;28;20484;-77
2022/05/24 05:44:38;;;;;;;3.20;1.83;;;16.20;99.90;;;;;;5051066;28;20850;-77
2022/05/24 05:47:04;;;;;;;1.87;1.47;;;16.30;99.90;;;;;;5069342;28;20946;-79
2022/05/24 05:49:30;;;;;;;1.30;1.20;;;16.30;99.90;;;;;;5051000;28;20936;-78
2022/05/24 05:51:56;;;;;;;3.37;1.70;;;16.30;99.90;;;;;;5051169;28;20425;-77
2022/05/24 05:54:23;;;;;;;2.40;1.73;;;16.30;99.90;;;;;;5051064;28;20514;-77
2022/05/24 05:56:49;;;;;;;3.83;1.13;;;16.30;99.90;;;;;;5069228;28;20454;-78
2022/05/24 05:59:15;;;;;;;8.00;2.10;;;16.30;99.90;;;;;;5034250;28;20426;-77
2022/05/24 06:01:42;;;;;;;2.63;1.07;;;16.40;99.90;;;;;;5069299;28;20833;-77
2022/05/24 06:04:09;;;;;;;2.17;1.20;;;16.50;99.90;;;;;;5051211;28;20580;-79
2022/05/24 06:06:38;;;;;;;4.07;1.50;;;16.60;99.90;;;;;;5068866;28;20466;-77
2022/05/24 06:09:04;;;;;;;1.20;1.10;;;16.70;99.90;;;;;;5068974;28;20828;-78
2022/05/24 06:11:29;;;;;;;2.83;1.40;;;16.70;99.90;;;;;;5068703;28;20438;-77
2022/05/24 06:13:55;;;;;;;2.60;1.30;;;16.80;99.90;;;;;;5034357;28;20257;-77
2022/05/24 06:16:21;;;;;;;2.30;1.47;;;16.90;99.90;;;;;;5034327;28;20236;-79
2022/05/24 06:18:47;;;;;;;1.43;1.17;;;17.00;99.90;;;;;;5050393;28;20192;-77
2022/05/24 06:21:13;;;;;;;6.43;1.63;;;17.20;99.90;;;;;;5050400;28;20519;-78
2022/05/24 06:23:38;;;;;;;3.27;0.90;;;17.20;99.90;;;;;;5033691;28;20860;-79
2022/05/24 06:26:04;;;;;;;9.70;1.50;;;17.20;99.90;;;;;;5050139;28;20190;-78
2022/05/24 06:28:30;;;;;;;4.90;1.87;;;17.30;99.90;;;;;;5068123;28;20188;-77
2022/05/24 06:30:56;;;;;;;3.13;1.30;;;17.40;99.90;;;;;;5068164;28;20181;-78
2022/05/24 06:33:22;;;;;;;1.70;1.40;;;17.50;99.90;;;;;;5050092;28;20213;-79
2022/05/24 06:35:47;;;;;;;7.43;1.47;;;17.50;99.90;;;;;;5049864;28;20421;-77
2022/05/24 06:38:14;;;;;;;1.03;0.93;;;17.40;99.90;;;;;;5068099;28;20186;-77
2022/05/24 06:40:40;;;;;;;2.23;0.90;;;17.40;99.90;;;;;;5067966;28;20699;-77
2022/05/24 06:43:06;;;;;;;1.60;1.07;;;17.50;99.90;;;;;;5067855;28;20452;-78
2022/05/24 06:45:32;;;;;;;1.50;0.90;;;17.40;99.90;;;;;;5049880;28;20212;-78
2022/05/24 06:47:57;;;;;;;1.30;1.13;;;17.50;99.90;;;;;;5049928;28;20186;-78
2022/05/24 06:50:24;;;;;;;2.20;1.13;;;17.60;99.90;;;;;;5050027;28;20424;-78
2022/05/24 06:52:54;;;;;;;3.53;1.27;;;17.70;99.90;;;;;;5067858;28;20577;-78
2022/05/24 06:55:21;;;;;;;3.60;1.23;;;17.70;99.90;;;;;;5067810;28;20413;-78
2022/05/24 06:57:47;;;;;;;5.90;1.50;;;17.70;99.90;;;;;;5033113;28;20434;-77
2022/05/24 07:03:12;;;;;;;2.30;1.40;;;17.90;99.90;;;;;;5052386;28;20442;-78
2022/05/24 07:05:38;;;;;;;4.30;1.53;;;18.10;99.90;;;;;;5067640;28;20420;-79
2022/05/24 07:08:05;;;;;;;4.30;1.37;;;18.30;99.90;;;;;;5067598;28;20504;-79
2022/05/24 07:10:32;;;;;;;7.40;1.60;;;18.40;99.90;;;;;;5067798;28;20424;-78
2022/05/24 07:13:00;;;;;;;2.93;1.00;;;18.60;99.90;;;;;;5070242;28;20923;-79
2022/05/24 07:15:27;;;;;;;5.43;1.10;;;18.70;99.90;;;;;;5053086;28;20468;-78
2022/05/24 07:17:53;;;;;;;1.00;0.90;;;18.70;99.90;;;;;;5071471;28;20425;-78
2022/05/24 07:20:19;;;;;;;0.90;0.70;;;18.70;99.90;;;;;;5053381;28;20481;-78
2022/05/24 07:22:44;;;;;;;2.57;1.00;;;18.80;99.90;;;;;;5071770;28;20553;-78
2022/05/24 07:25:10;;;;;;;1.53;1.10;;;18.70;99.90;;;;;;5051461;28;20186;-78
2022/05/24 07:27:36;;;;;;;1.67;0.80;;;18.70;99.90;;;;;;5058285;28;20203;-78
2022/05/24 07:30:04;;;;;;;6.33;0.80;;;18.70;99.90;;;;;;5092278;28;20257;-78
2022/05/24 07:32:31;;;;;;;2.80;0.70;;;18.60;99.90;;;;;;5093654;28;20452;-76
2022/05/24 07:34:59;;;;;;;2.67;0.70;;;18.60;99.90;;;;;;5042729;28;20848;-78
2022/05/24 07:37:25;;;;;;;4.20;0.87;;;18.50;99.90;;;;;;5067715;28;20895;-78
2022/05/24 07:45:47;;;;;;;1.77;0.70;;;18.40;99.90;;;;;;5067751;28;20813;-78
2022/05/24 07:48:06;;;;;;;3.07;0.70;;;17.60;99.90;;;;;;5068200;28;20458;-78
2022/05/24 07:50:32;;;;;;;2.10;0.60;;;17.20;99.90;;;;;;5068189;28;20428;-77
2022/05/24 07:52:57;;;;;;;2.10;0.60;;;16.70;99.90;;;;;;5050104;28;20485;-78
2022/05/24 07:55:25;;;;;;;2.87;0.77;;;16.40;99.90;;;;;;5068402;28;20177;-77
2022/05/24 07:57:51;;;;;;;1.00;0.60;;;16.20;99.90;;;;;;5068576;28;20190;-77
2022/05/24 08:00:17;;;;;;;4.00;1.23;;;16.00;99.90;;;;;;5067970;28;20454;-78
2022/05/24 08:02:43;;;;;;;1.30;0.83;;;16.00;99.90;;;;;;5049765;28;20501;-78
2022/05/24 08:05:10;;;;;;;1.60;0.60;;;15.90;99.90;;;;;;5068252;28;20416;-78
2022/05/24 08:07:36;;;;;;;2.50;0.80;;;15.80;99.90;;;;;;5068466;28;20661;-78
2022/05/24 08:10:04;;;;;;;2.30;0.70;;;15.70;99.90;;;;;;5068358;28;20828;-77
2022/05/24 08:12:30;;;;;;;2.80;0.70;;;15.70;99.90;;;;;;5053246;28;20533;-77
2022/05/24 08:14:55;;;;;;;1.10;0.50;;;15.60;99.90;;;;;;5072456;28;20509;-78
2022/05/24 08:17:21;;;;;;;2.30;0.60;;;15.60;99.90;;;;;;5037676;28;20613;-77
2022/05/24 08:19:47;;;;;;;0.90;0.63;;;15.70;99.90;;;;;;5072371;28;20215;-78
2022/05/24 08:22:13;;;;;;;2.40;0.70;;;15.90;99.90;;;;;;5072329;28;20484;-77
2022/05/24 08:24:38;;;;;;;0.90;0.60;;;16.00;99.90;;;;;;5072297;28;20192;-77
2022/05/24 08:27:04;;;;;;;0.90;0.73;;;16.20;99.90;;;;;;5054073;28;20184;-77
2022/05/24 08:29:30;;;;;;;0.70;0.50;;;16.30;99.90;;;;;;5072327;28;20191;-78
2022/05/24 08:31:56;;;;;;;1.60;0.47;;;16.40;99.90;;;;;;5054603;28;20537;-77
2022/05/24 08:34:22;;;;;;;2.90;0.57;;;16.60;99.90;;;;;;5054383;28;20201;-77
2022/05/24 08:36:47;;;;;;;0.90;0.50;;;16.90;99.90;;;;;;5072062;28;20498;-78
2022/05/24 08:39:13;;;;;;;1.80;0.47;;;16.90;99.90;;;;;;5053712;28;20456;-78
2022/05/24 08:41:57;;;;;;;1.60;0.50;;;16.70;99.90;;;;;;5071695;28;20188;-77
2022/05/24 08:50:51;;;;;;;1.37;0.50;;;17.00;99.90;;;;;;5071860;28;20410;-78
2022/05/24 08:53:35;;;;;;;0.70;0.40;;;17.30;99.90;;;;;;5071781;28;20452;-78
2022/05/24 08:56:06;;;;;;;4.70;0.40;;;17.40;99.90;;;;;;5071733;28;20430;-78
2022/05/24 08:58:36;;;;;;;0.70;0.40;;;17.30;99.90;;;;;;5071959;28;20412;-78
2022/05/24 09:01:18;;;;;;;0.70;0.40;;;17.50;99.90;;;;;;5037605;28;20464;-77
2022/05/24 09:03:45;;;;;;;1.03;0.50;;;17.50;99.90;;;;;;5053898;28;20940;-77
2022/05/24 09:06:30;;;;;;;1.00;0.40;;;17.60;99.90;;;;;;5054235;28;20658;-78
2022/05/24 09:09:02;;;;;;;1.53;0.40;;;17.40;99.90;;;;;;5071885;28;20491;-78
2022/05/24 09:11:42;;;;;;;1.30;0.50;;;17.20;99.90;;;;;;5072017;28;20890;-77
2022/05/24 09:14:22;;;;;;;0.70;0.47;;;17.20;99.90;;;;;;5072656;28;20648;-78
2022/05/24 09:17:25;;;;;;;0.90;0.47;;;17.20;99.90;;;;;;5072292;28;20425;-78
2022/05/24 09:19:50;;;;;;;2.30;0.40;;;17.20;99.90;;;;;;5053937;28;21064;-77
2022/05/24 09:22:21;;;;;;;3.80;0.70;;;17.10;99.90;;;;;;5071429;28;20437;-77
2022/05/24 09:24:56;;;;;;;1.07;0.50;;;17.00;99.90;;;;;;5071859;28;20177;-77
2022/05/24 09:27:25;;;;;;;3.13;0.50;;;17.20;99.90;;;;;;5072377;28;20493;-78
2022/05/24 09:29:58;;;;;;;0.70;0.40;;;17.30;99.90;;;;;;5072859;28;20496;-78
2022/05/24 09:32:30;;;;;;;1.10;0.40;;;17.40;99.90;;;;;;5021451;28;20453;-77
2022/05/24 09:35:23;;;;;;;1.60;0.47;;;17.30;99.90;;;;;;5053904;28;20412;-77
2022/05/24 09:38:04;;;;;;;0.93;0.50;;;17.40;99.90;;;;;;5072149;28;20659;-77
2022/05/24 09:40:55;;;;;;;1.53;0.50;;;17.50;99.90;;;;;;5072212;28;20458;-78
2022/05/24 09:43:33;;;;;;;1.10;0.50;;;17.60;99.90;;;;;;5072953;28;20459;-78
2022/05/24 09:46:32;;;;;;;1.20;0.57;;;17.70;99.90;;;;;;5072509;28;20415;-78
2022/05/24 09:49:12;;;;;;;2.50;0.60;;;17.90;99.90;;;;;;5017960;28;20426;-77
2022/05/24 09:51:42;;;;;;;1.40;0.60;;;18.00;99.90;;;;;;5071619;28;20420;-78
2022/05/24 09:54:24;;;;;;;2.30;0.50;;;18.20;99.90;;;;;;5071360;28;20964;-78
2022/05/24 09:57:07;;;;;;;0.80;0.57;;;18.30;99.90;;;;;;5072327;28;20437;-77
2022/05/24 09:59:34;;;;;;;1.20;0.40;;;18.40;99.90;;;;;;5053378;28;20521;-78
2022/05/24 10:02:02;;;;;;;2.07;0.83;;;18.60;99.90;;;;;;5071831;28;20474;-78
2022/05/24 10:04:36;;;;;;;1.20;0.50;;;18.60;99.90;;;;;;5052760;28;20427;-78
2022/05/24 10:07:22;;;;;;;0.70;0.50;;;18.60;99.90;;;;;;5053002;28;20843;-78
2022/05/24 10:09:53;;;;;;;0.90;0.60;;;18.90;99.90;;;;;;5071631;28;20437;-77
2022/05/24 10:12:57;;;;;;;1.07;0.53;;;19.40;99.90;;;;;;5072167;28;20435;-78
2022/05/24 10:15:39;;;;;;;1.73;0.53;;;19.80;99.90;;;;;;5070195;28;20475;-78
2022/05/24 10:18:32;;;;;;;2.10;0.50;;;20.30;98.20;;;;;;5052443;28;20432;-77
2022/05/24 10:21:22;;;;;;;4.47;0.60;;;20.40;95.50;;;;;;5070471;28;20457;-78
2022/05/24 10:23:57;;;;;;;0.80;0.50;;;20.30;94.70;;;;;;5070833;28;20491;-78
2022/05/24 10:26:45;;;;;;;1.10;0.50;;;20.20;97.10;;;;;;5070815;28;20405;-78
2022/05/24 10:29:35;;;;;;;1.77;0.60;;;20.00;96.70;;;;;;5054535;28;20474;-78
2022/05/24 10:38:27;;;;;;;2.53;0.40;;;19.60;96.10;;;;;;5044357;28;20425;-78
2022/05/24 10:41:14;;;;;;;2.53;0.67;;;19.50;96.80;;;;;;5069717;28;20468;-78
2022/05/24 10:43:51;;;;;;;4.67;0.50;;;19.50;96.50;;;;;;5069450;28;20490;-78
2022/05/24 10:46:21;;;;;;;0.70;0.50;;;20.10;95.40;;;;;;5069656;28;20821;-77
2022/05/24 10:49:18;;;;;;;2.17;0.60;;;21.00;94.50;;;;;;5051659;28;20479;-78
2022/05/24 10:52:03;;;;;;;0.90;0.60;;;21.00;94.50;;;;;;5051817;28;20422;-78
2022/05/24 10:54:53;;;;;;;1.13;0.50;;;20.80;93.60;;;;;;5071041;28;20427;-78
2022/05/24 10:57:33;;;;;;;1.17;0.50;;;20.70;94.10;;;;;;5051276;28;20739;-78
2022/05/24 11:00:05;;;;;;;0.80;0.40;;;20.60;92.40;;;;;;5051737;28;20736;-78
2022/05/24 11:02:57;;;;;;;1.67;0.60;;;20.90;93.10;;;;;;5069415;28;20807;-78
2022/05/24 11:05:37;;;;;;;1.30;0.50;;;20.90;93.60;;;;;;5050804;28;20417;-78
2022/05/24 11:08:12;;;;;;;0.70;0.40;;;20.70;92.90;;;;;;5050972;28;20417;-78
2022/05/24 11:10:41;;;;;;;1.80;0.50;;;20.50;93.70;;;;;;5069154;28;20508;-78
2022/05/24 11:13:12;;;;;;;1.33;0.40;;;20.50;93.10;;;;;;5050363;28;20525;-78
2022/05/24 11:15:47;;;;;;;1.43;0.50;;;20.70;94.10;;;;;;5049836;28;20429;-78
2022/05/24 11:18:19;;;;;;;1.97;0.50;;;20.70;92.90;;;;;;5068806;28;20460;-78
2022/05/24 11:21:15;;;;;;;0.80;0.50;;;20.40;91.60;;;;;;5068973;28;20993;-78
2022/05/24 11:24:24;;;;;;;2.90;0.60;;;20.40;92.30;;;;;;5068290;28;20456;-78
2022/05/24 11:26:53;;;;;;;1.47;0.50;;;20.40;90.70;;;;;;5003246;28;20453;-78
2022/05/24 11:29:25;;;;;;;1.13;0.50;;;20.50;90.70;;;;;;5068095;28;20939;-78
2022/05/24 11:31:59;;;;;;;1.17;0.40;;;20.80;90.30;;;;;;5068162;28;21021;-78
2022/05/24 11:34:31;;;;;;;1.20;0.50;;;20.90;91.00;;;;;;5050150;28;20417;-78
2022/05/24 11:37:20;;;;;;;4.50;0.60;;;20.80;90.40;;;;;;5049719;28;20409;-78
2022/05/24 11:39:46;;;;;;;0.87;0.50;;;20.90;88.70;;;;;;5054120;28;20483;-78
2022/05/24 11:42:40;;;;;;;4.00;0.50;;;20.60;86.30;;;;;;5050458;28;20430;-78
2022/05/24 11:45:27;;;;;;;2.13;0.40;;;20.40;87.40;;;;;;5049981;28;20445;-78
2022/05/24 11:48:21;;;;;;;0.90;0.57;;;20.00;90.00;;;;;;5053475;28;20420;-78
2022/05/24 11:50:50;;;;;;;0.90;0.60;;;19.80;87.90;;;;;;5053015;28;20422;-78
2022/05/24 11:53:21;;;;;;;1.00;0.50;;;20.00;90.90;;;;;;5053577;28;20433;-78
2022/05/24 11:56:10;;;;;;;1.40;0.50;;;20.30;90.00;;;;;;5071862;28;20793;-77
2022/05/24 11:58:36;;;;;;;1.13;0.50;;;20.70;91.20;;;;;;5053440;28;20412;-78
2022/05/24 12:01:16;;;;;;;1.27;0.60;;;20.80;90.00;;;;;;5071542;28;20457;-77
2022/05/24 12:10:00;;;;;;;1.47;0.60;;;21.00;83.80;;;;;;5056329;28;20420;-78
2022/05/24 12:12:54;;;;;;;1.63;0.50;;;21.20;90.20;;;;;;5071187;28;20490;-77
2022/05/24 12:15:23;;;;;;;2.33;0.60;;;21.50;86.90;;;;;;5057761;28;20432;-77
2022/05/24 12:18:12;;;;;;;0.90;0.47;;;21.90;87.70;;;;;;5071323;28;20405;-77
2022/05/24 12:20:38;;;;;;;1.63;0.40;;;22.40;87.20;;;;;;5052446;28;20552;-78
2022/05/24 12:23:07;;;;;;;0.80;0.67;;;23.10;87.80;;;;;;5071948;28;20912;-78
2022/05/24 12:25:54;;;;;;;2.43;0.60;;;23.40;85.20;;;;;;5071657;28;20179;-77
2022/05/24 12:28:23;;;;;;;2.50;0.60;;;23.40;82.80;;;;;;5053344;28;21105;-78
2022/05/24 12:30:51;;;;;;;1.00;0.50;;;23.00;78.30;;;;;;5053013;28;20415;-78
2022/05/24 12:33:33;;;;;;;1.47;0.60;;;22.60;81.00;;;;;;5036915;28;20452;-78
2022/05/24 12:36:07;;;;;;;1.90;0.80;;;22.40;80.20;;;;;;5053327;28;20418;-78
2022/05/24 12:38:35;;;;;;;2.50;0.70;;;22.10;74.90;;;;;;5053088;28;20831;-78
2022/05/24 12:41:15;;;;;;;0.90;0.57;;;21.90;84.30;;;;;;5036060;28;20474;-78
2022/05/24 12:43:55;;;;;;;0.87;0.63;;;22.00;85.50;;;;;;5052305;28;20473;-79
2022/05/24 12:46:21;;;;;;;1.47;0.63;;;22.10;83.00;;;;;;5036451;28;20417;-78
2022/05/24 12:48:50;;;;;;;1.10;0.50;;;22.30;82.30;;;;;;5054982;28;20608;-78
2022/05/24 12:51:19;;;;;;;1.10;0.70;;;22.30;81.00;;;;;;5072147;28;20432;-79
2022/05/24 12:53:45;;;;;;;2.00;0.73;;;22.10;82.20;;;;;;5072470;28;20441;-79
2022/05/24 12:56:18;;;;;;;3.97;0.50;;;22.10;83.20;;;;;;5053468;28;21023;-79
2022/05/24 12:58:46;;;;;;;0.70;0.47;;;22.00;86.80;;;;;;5052591;28;20189;-79
2022/05/24 13:01:15;;;;;;;1.17;0.50;;;22.10;88.90;;;;;;5071451;28;20461;-79
2022/05/24 13:03:55;;;;;;;1.10;0.70;;;22.00;86.70;;;;;;5071070;28;20429;-78
2022/05/24 13:06:26;;;;;;;3.17;0.50;;;22.00;85.30;;;;;;5071636;28;20501;-79
2022/05/24 13:09:12;;;;;;;0.80;0.50;;;22.00;80.00;;;;;;5052548;28;20484;-78
2022/05/24 13:11:38;;;;;;;1.30;0.60;;;22.20;78.50;;;;;;5051791;28;20425;-79
2022/05/24 13:14:07;;;;;;;0.80;0.50;;;22.20;79.80;;;;;;5052082;28;20437;-79
2022/05/24 13:16:34;;;;;;;0.90;0.40;;;22.60;86.00;;;;;;5069992;28;20789;-79
2022/05/24 13:19:03;;;;;;;1.87;0.70;;;23.10;86.40;;;;;;5051644;28;20422;-78
2022/05/24 13:21:31;;;;;;;0.70;0.50;;;23.30;73.10;;;;;;5069381;28;20454;-79
2022/05/24 13:24:07;;;;;;;1.30;0.50;;;23.10;74.60;;;;;;5069644;28;20438;-79
2022/05/24 13:26:33;;;;;;;1.00;0.50;;;23.60;82.90;;;;;;5069750;28;20443;-78
2022/05/24 13:29:20;;;;;;;1.00;0.60;;;24.00;78.30;;;;;;5051679;28;20450;-79
2022/05/24 13:34:34;;;;;;;1.67;0.80;;;23.70;68.30;;;;;;5069562;28;20939;-79
2022/05/24 13:37:07;;;;;;;3.33;0.50;;;24.00;77.20;;;;;;5052168;28;20429;-79
2022/05/24 13:39:39;;;;;;;0.70;0.50;;;23.80;73.80;;;;;;5034737;28;20425;-79
2022/05/24 13:42:24;;;;;;;2.30;0.60;;;23.60;74.30;;;;;;5050946;28;20592;-79
2022/05/24 13:45:20;;;;;;;0.93;0.80;;;23.20;73.70;;;;;;5050639;28;20432;-79
2022/05/24 13:47:54;;;;;;;1.00;0.60;;;23.20;77.80;;;;;;5068982;28;20907;-79
2022/05/24 13:50:25;;;;;;;1.33;0.60;;;23.20;74.00;;;;;;5068761;28;20442;-78
2022/05/24 13:52:56;;;;;;;1.13;0.57;;;23.00;74.20;;;;;;5068272;28;20452;-78
2022/05/24 13:55:32;;;;;;;0.70;0.50;;;22.60;71.40;;;;;;5050320;28;20432;-78